< < Back
Terminal Aerodrome Forecast


Current Version              Previous Versions:   1  2  3  4  5  6  7  8  9  

Terminal Aerodrome Forecast

181
FTUS42 KGSP 020500
TAFAND
TAF
KAND 020535Z 0206/0306 00000KT P6SM SCT250
     FM021000 00000KT 5SM BR SCT250
     FM021300 24004KT P6SM SCT250
     FM021900 25007KT P6SM SCT060
     FM022100 24006KT P6SM BKN060 PROB30 0221/0224 4SM TSRA BKN040CB
     FM030000 24003KT P6SM BKN060=

Latest METAR

443
SAUS70 KWBC 021700
MTRAND
METAR KAND 021656Z AUTO 26010KT 10SM CLR 32/21 A3009 RMK AO2 SLP177
T03220206


USA.gov is the U.S. government's official web portal to all federal, state and local government web resources and services.